Main page
METAR-TAF:

METAR-TAF

Airports :

Karpathos Island National Airport

Karpathos, Greece

latitude: 35-24-51N, longitude: 027-08-54E, elevation: 6 m

Current weather observation

The report was made 11 minutes ago, at 10:20 UTC
Wind 17 kt from the West
Temperature 29°C
Humidity 70%
Pressure 1005 hPa
Visibility: 9000 m
Few clouds at a height of 1500 ft
Scattered clouds at a height of 1800 ft

METAR: LGKP 181020Z 27017KT 9000 FEW015 SCT018 29/23 Q1005

Time: 13:31 (10:31 UTC)

Forecast

The report was made 2 hours and 31 minutes ago, at 08:00 UTC
Forecast valid from 18 at 09 UTC to 18 at 18 UTC
Wind 20 kt from the West/Northwest
Visibility 10 km or more
Few clouds at a height of 1800 ft
Temporary
from 18 at 09 UTC to 18 at 18 UTC
Wind 20 kt from the West/Northwest with gusts up to 30 kt

TAF: LGKP 180800Z 1809/1818 30020KT 9999 FEW018 TEMPO 1809/1818 30020G30KT

Weather observations and forecasts of more than 4000 airports (METAR and TAF reports).

The available stations are represented by yellow and red dots on the map.

Hover mouse over dot to see the name of the station.

Then click to see weather observations and forecasts.

To change the map : click on the green buttons with a black cross to zoom in, on the green button with a dash to zoom out, or on the green arrows for adjacent maps.


METAR-TAF: